Nearby METAR Reports

 

KTTN - Trenton, New Jersey, USA
Distance from station: WNW 11mi, 17km
Updated: Thu, 23-Sep-2021 6:53am EDT
Overcast
Overcast
 Wind from SE
Wind: SE 12 mph , 19 km/h
Temperature: 72°F , 22°C
Dew Point: 70°F , 21°C
Humidity: 94%
Barometer: 29.88 inHg , 1011.9 hPa
Clouds: Overcast
Visibility: 10 miles , 16 km
Cloud details: Few Clouds 2600 ft
Mostly cloudy 4600 ft
Overcast 6000 ft
2021/09/23 10:53 KTTN 231053Z 13010KT 10SM FEW026 BKN046 OVC060 22/21 A2988 RMK AO2 SLP112 T02220206
KWRI - Wrightst/Mcguire, New Jersey, USA
Distance from station: SSE 14mi, 22km
Updated: Thu, 23-Sep-2021 6:44am EDT
Mostly cloudy
Mostly cloudy
 Wind from SE
Wind: SE 9 mph , 15 km/h
Temperature: 73°F , 23°C
Dew Point: 70°F , 21°C
Humidity: 89%
Barometer: 29.89 inHg , 1012.2 hPa
Clouds: Mostly cloudy
Visibility: 10 miles , 16 km
Cloud details: Partly cloudy 2400 ft
Mostly cloudy 2900 ft
2021/09/23 10:44 KWRI 231044Z 14008KT 10SM SCT024 BKN029 23/21 A2989 RMK AO2A RAE40 SLP120
 
KNEL - Lakehurst Nas, New Jersey, USA
Distance from station: SE 21mi, 34km
Updated: Thu, 23-Sep-2021 6:00am EDT
Overcast
Overcast
 Wind from SE
Wind: SE 10 mph , 17 km/h
Temperature: 75°F , 24°C
Dew Point: 70°F , 21°C
Humidity: 83%
Barometer: 29.90 inHg , 1012.5 hPa
Clouds: Overcast
Visibility: 10 miles , 16 km
Cloud details: Few Clouds 3200 ft
Overcast 6000 ft
2021/09/23 10:00 KNEL 231000Z AUTO 14009KT 10SM FEW032 OVC060 24/21 A2990 RMK AO2 RAB0901E0926 SLP122 P0000 T02390211 $
KPNE - Philadelphia/Ne, Pennsylvania, USA
Distance from station: WSW 22mi, 35km
Updated: Thu, 23-Sep-2021 6:54am EDT
Overcast
Overcast
 Wind from SE
Wind: SE 13 mph , 20 km/h, Gust: 20 mph , 31 km/h
Temperature: 73°F , 23°C
Dew Point: 70°F , 21°C
Humidity: 89%
Barometer: 29.89 inHg , 1012.2 hPa
Clouds: Overcast
Visibility: 10 miles , 16 km
Cloud details: Partly cloudy 2200 ft
Overcast 3000 ft
2021/09/23 10:54 KPNE 231054Z AUTO 13011G17KT 10SM SCT022 OVC030 23/21 A2989 RMK AO2 RAB10E27 SLP119 P0000 T02280206
 
KVAY - Mount Holly, New Jersey, USA
Distance from station: SSW 22mi, 35km
Updated: Thu, 23-Sep-2021 6:54am EDT
Overcast
Overcast
 Wind from SE
Wind: SE 7 mph , 11 km/h
Temperature: 73°F , 23°C
Dew Point: 70°F , 21°C
Humidity: 89%
Barometer: 29.88 inHg , 1011.9 hPa
Clouds: Overcast
Visibility: 10 miles , 16 km
Cloud details: Few Clouds 1800 ft
Mostly cloudy 2400 ft
Overcast 3300 ft
2021/09/23 10:54 KVAY 231054Z AUTO 13006KT 10SM FEW018 BKN024 OVC033 23/21 A2988 RMK AO2 RAB23E43 SLP117 P0000 T02280211
KMJX - Toms River, New Jersey, USA
Distance from station: SE 26mi, 42km
Updated: Thu, 23-Sep-2021 5:56am EDT
Overcast
Overcast
 Wind from SE
Wind: SE 14 mph , 22 km/h, Gust: 20 mph , 31 km/h
Temperature: 75°F , 24°C
Dew Point: 70°F , 21°C
Humidity: 83%
Barometer: 29.91 inHg , 1012.9 hPa
Clouds: Overcast
Visibility: 10 miles , 16 km
Cloud details: Partly cloudy 3100 ft
Overcast 6000 ft
2021/09/23 09:56 KMJX 230956Z AUTO 14012G17KT 10SM SCT031 OVC060 24/21 A2991 RMK AO2 RAB13E24 SLPNO P0000 T02390211
 
KDYL - Doylestown, Pennsylvania, USA
Distance from station: WNW 27mi, 43km
Updated: Thu, 23-Sep-2021 6:54am EDT
Light rain, Overcast
Light rain, Overcast
 Wind from varies
Wind: varies 5 mph , 7 km/h
Temperature: 72°F , 22°C
Dew Point: 68°F , 20°C
Humidity: 88%
Barometer: 29.87 inHg , 1011.5 hPa
Summary: Light rain
Clouds: Overcast
Visibility: 10 miles , 16 km
Cloud details: Mostly cloudy 1800 ft
Mostly cloudy 2600 ft
Overcast 3600 ft
2021/09/23 10:54 KDYL 231054Z AUTO VRB04KT 10SM -RA BKN018 BKN026 OVC036 22/20 A2987 RMK AO2 RAE10B29 SLP110 P0003 T02220200
KBLM - Belmar/Farmdale, New Jersey, USA
Distance from station: E 28mi, 45km
Updated: Thu, 23-Sep-2021 6:56am EDT
Overcast
Overcast
 Wind from SE
Wind: SE 12 mph , 19 km/h, Gust: 17 mph , 28 km/h
Temperature: 73°F , 23°C
Dew Point: 72°F , 22°C
Humidity: 94%
Barometer: 29.94 inHg , 1013.9 hPa
Clouds: Overcast
Visibility: 10 miles , 16 km
Cloud details: Overcast 7000 ft
2021/09/23 10:56 KBLM 231056Z AUTO 14010G15KT 10SM OVC070 23/22 A2994 RMK AO2 SLP137 T02330217 PNO $
 
KSMQ - Somerville, New Jersey, USA
Distance from station: N 28mi, 45km
Updated: Thu, 23-Sep-2021 6:53am EDT
Light rain, Mist, Overcast
Light rain, Mist, Overcast
 Wind from S
Wind: S 6 mph , 9 km/h
Temperature: 72°F , 22°C
Dew Point: 70°F , 21°C
Humidity: 94%
Barometer: 29.89 inHg , 1012.2 hPa
Summary: Light rain, Mist
Clouds: Overcast
Visibility: 5 miles , 8 km
Cloud details: Few Clouds 2200 ft
Mostly cloudy 3800 ft
Overcast 4900 ft
2021/09/23 10:53 KSMQ 231053Z AUTO 17005KT 5SM -RA BR FEW022 BKN038 OVC049 22/21 A2989 RMK AO2 RAB15 SLP122 P0002 T02220206 $
KLOM - Philly Wings F, Pennsylvania, USA
Distance from station: W 34mi, 54km
Updated: Tue, 21-Sep-2021 8:55pm EDT
NOT Current
Partly cloudy
Partly cloudy
 Wind from ENE
Wind: ENE 5 mph , 7 km/h
Temperature: 68°F , 20°C
Dew Point: 64°F , 18°C
Humidity: 88%
Barometer: 30.25 inHg , 1024.4 hPa
Clouds: Partly cloudy
Visibility: 10 miles , 16 km
Cloud details: Partly cloudy 1600 ft
Partly cloudy 7000 ft
2021/09/22 00:55 KLOM 220055Z AUTO 07004KT 10SM SCT016 SCT070 20/18 A3025 RMK AO2 T02040183
 
KLDJ - Linden, New Jersey, USA
Distance from station: NE 35mi, 56km
Updated: Thu, 23-Sep-2021 5:55am EDT
Overcast
Overcast
 Wind from SSE
Wind: SSE 12 mph , 19 km/h
Temperature: 75°F , 24°C
Dew Point: 70°F , 21°C
Humidity: 83%
Barometer: 29.92 inHg , 1013.2 hPa
Clouds: Overcast
Visibility: 10 miles , 16 km
Cloud details: Partly cloudy 6500 ft
Overcast 9000 ft
2021/09/23 09:55 KLDJ 230955Z AUTO 15010KT 10SM SCT065 OVC090 24/21 A2992 RMK AO2 LTG DSNT SW T02370205
KCKZ - Perkasie, Pennsylvania, USA
Distance from station: WNW 36mi, 58km
Updated: Thu, 23-Sep-2021 6:55am EDT
Overcast
Overcast
 Wind from SE
Wind: SE 7 mph , 11 km/h
Temperature: 72°F , 22°C
Dew Point: 72°F , 22°C
Humidity: 100%
Barometer: 29.88 inHg , 1011.9 hPa
Clouds: Overcast
Visibility: 10 miles , 16 km
Cloud details: Overcast 1800 ft
2021/09/23 10:55 KCKZ 231055Z AUTO 13006KT 10SM OVC018 22/22 A2988 RMK AO2
 
KPHL - Philadelphia, Pennsylvania, USA
Distance from station: SW 40mi, 64km
Updated: Thu, 23-Sep-2021 6:54am EDT
Mostly cloudy
Mostly cloudy
 Wind from SE
Wind: SE 12 mph , 19 km/h, Gust: 22 mph , 35 km/h
Temperature: 73°F , 23°C
Dew Point: 68°F , 20°C
Humidity: 83%
Barometer: 29.86 inHg , 1011.2 hPa
Clouds: Mostly cloudy
Visibility: 10 miles , 16 km
Cloud details: Mostly cloudy 2400 ft
Mostly cloudy 3300 ft
Mostly cloudy 7000 ft
Mostly cloudy 22000 ft
2021/09/23 10:54 KPHL 231054Z 14010G19KT 10SM BKN024 BKN033 BKN070 BKN220 23/20 A2986 RMK AO2 SLP110 T02330200 $
KEWR - Newark, New Jersey, USA
Distance from station: NE 41mi, 66km
Updated: Thu, 23-Sep-2021 6:51am EDT
Mostly cloudy
Mostly cloudy
 Wind from SE
Wind: SE 13 mph , 20 km/h, Gust: 20 mph , 31 km/h
Temperature: 77°F , 25°C
Dew Point: 70°F , 21°C
Humidity: 79%
Barometer: 29.92 inHg , 1013.2 hPa
Clouds: Mostly cloudy
Visibility: 10 miles , 16 km
Cloud details: Partly cloudy 1500 ft
Mostly cloudy 7000 ft
Mostly cloudy 9500 ft
2021/09/23 10:51 KEWR 231051Z 13011G17KT 10SM SCT015 BKN070 BKN095 25/21 A2992 RMK AO2 SLP131 T02500211
 
KMMU - Morristown Muni, New Jersey, USA
Distance from station: NNE 41mi, 66km
Updated: Thu, 23-Sep-2021 6:45am EDT
Mist, Overcast
Mist, Overcast
 Wind from SSE
Wind: SSE 12 mph , 19 km/h, Gust: 18 mph , 30 km/h
Temperature: 73°F , 23°C
Dew Point: 70°F , 21°C
Humidity: 89%
Barometer: 29.93 inHg , 1013.5 hPa
Summary: Mist
Clouds: Overcast
Visibility: 5 miles , 8 km
Cloud details: Mostly cloudy 1600 ft
Mostly cloudy 2200 ft
Overcast 2600 ft
2021/09/23 10:45 KMMU 231045Z 16010G16KT 5SM BR BKN016 BKN022 OVC026 23/21 A2993
KUKT - Quakertown Arp, Pennsylvania, USA
Distance from station: WNW 42mi, 68km
Updated: Thu, 23-Sep-2021 6:55am EDT
Overcast
Overcast
 Wind from SE
Wind: SE 13 mph , 20 km/h
Temperature: 72°F , 22°C
Dew Point: 70°F , 21°C
Humidity: 94%
Barometer: 29.87 inHg , 1011.5 hPa
Clouds: Overcast
Visibility: 10 miles , 16 km
Cloud details: Mostly cloudy 2000 ft
Overcast 2700 ft
2021/09/23 10:55 KUKT 231055Z AUTO 13011KT 10SM BKN020 OVC027 22/21 A2987 RMK A01
 
KJRB - Manhattan/Dwntwn, New York, USA
Distance from station: NE 47mi, 75km
Updated: Thu, 23-Sep-2021 6:56am EDT
Overcast
Overcast
 Wind from ESE
Wind: ESE 12 mph , 19 km/h, Gust: 18 mph , 30 km/h
Temperature: 75°F , 24°C
Dew Point: 70°F , 21°C
Humidity: 83%
Barometer: 29.95 inHg , 1014.2 hPa
Clouds: Overcast
Visibility: 10 miles , 16 km
Cloud details: Partly cloudy 1400 ft
Partly cloudy 3000 ft
Overcast 7000 ft
2021/09/23 10:56 KJRB 231056Z AUTO 11010G16KT 080V150 10SM SCT014 SCT030 OVC070 24/21 A2995 RMK AO2 SLP140 T02390211
KPTW - Pottstown, Pennsylvania, USA
Distance from station: W 48mi, 77km
Updated: Thu, 23-Sep-2021 6:54am EDT
Overcast
Overcast
 Wind from SE
Wind: SE 9 mph , 15 km/h
Temperature: 72°F , 22°C
Dew Point: 66°F , 19°C
Humidity: 83%
Barometer: 29.86 inHg , 1011.2 hPa
Clouds: Overcast
Visibility: 9 miles , 14 km
Cloud details: Mostly cloudy 2100 ft
Overcast 2700 ft
2021/09/23 10:54 KPTW 231054Z AUTO 14008KT 100V170 9SM BKN021 OVC027 22/19 A2986 RMK AO2 SLP106 T02170194
 
KCDW - Caldwell, New Jersey, USA
Distance from station: NNE 50mi, 80km
Updated: Thu, 23-Sep-2021 6:53am EDT
Overcast
Overcast
 Wind from SSE
Wind: SSE 13 mph , 20 km/h, Gust: 21 mph , 33 km/h
Temperature: 77°F , 25°C
Dew Point: 70°F , 21°C
Humidity: 79%
Barometer: 29.93 inHg , 1013.5 hPa
Clouds: Overcast
Visibility: 10 miles , 16 km
Cloud details: Mostly cloudy 2000 ft
Overcast 2600 ft
2021/09/23 10:53 KCDW 231053Z 15011G18KT 10SM BKN020 OVC026 25/21 A2993 RMK AO2 SLP138 T02500206